createdAt,value
2019-04-30T00:00:30.440Z,82.25
2019-04-30T00:05:57.348Z,82.04
2019-04-30T00:08:39.229Z,81.57
2019-04-30T00:11:21.898Z,81.69
2019-04-30T00:13:55.431Z,81.82
2019-04-30T00:16:45.123Z,81.52
2019-04-30T00:19:26.675Z,81.61
2019-04-30T00:22:00.286Z,81.40
2019-04-30T00:24:44.276Z,81.38
2019-04-30T00:27:28.313Z,80.99
2019-04-30T00:30:04.856Z,81.03
2019-04-30T00:32:47.184Z,80.74
2019-04-30T00:35:27.837Z,80.54
2019-04-30T00:38:00.214Z,80.59
2019-04-30T00:40:49.666Z,80.26
2019-04-30T00:43:20.094Z,80.11
2019-04-30T00:45:50.564Z,80.22
2019-04-30T00:48:28.168Z,80.04
2019-04-30T00:51:18.242Z,79.67
2019-04-30T00:53:55.781Z,79.77
2019-04-30T00:56:39.350Z,79.70
2019-04-30T00:59:10.672Z,79.64
2019-04-30T01:02:29.211Z,79.71
2019-04-30T01:07:55.280Z,79.41
2019-04-30T01:10:28.321Z,79.69
2019-04-30T01:13:19.064Z,79.85
2019-04-30T01:16:00.638Z,79.69
2019-04-30T01:18:50.408Z,79.75
2019-04-30T01:21:20.752Z,80.01
2019-04-30T01:24:10.559Z,79.93
2019-04-30T01:26:41.083Z,80.30
2019-04-30T01:29:38.240Z,80.32
2019-04-30T01:32:22.325Z,80.61
2019-04-30T01:34:54.036Z,80.82
2019-04-30T01:37:44.121Z,80.81
2019-04-30T01:40:14.749Z,81.00
2019-04-30T01:42:48.528Z,80.82
2019-04-30T01:45:31.481Z,80.94
2019-04-30T01:48:12.723Z,81.24
2019-04-30T01:50:54.178Z,81.13
2019-04-30T01:53:24.766Z,81.26
2019-04-30T02:01:55.654Z,81.29
2019-04-30T02:04:26.018Z,81.44
2019-04-30T02:07:15.791Z,81.38
2019-04-30T02:12:49.545Z,81.89
2019-04-30T02:15:19.901Z,82.13
2019-04-30T02:17:50.547Z,82.37
2019-04-30T02:20:41.803Z,82.48
2019-04-30T02:23:31.564Z,82.64
2019-04-30T02:26:01.944Z,82.82
2019-04-30T02:28:32.335Z,82.68
2019-04-30T02:31:02.678Z,83.02
2019-04-30T02:36:34.291Z,82.52
2019-04-30T02:54:35.090Z,85.57
2019-04-30T02:57:24.852Z,85.95
2019-04-30T03:00:14.117Z,86.45
2019-04-30T03:02:44.564Z,87.15
2019-04-30T03:08:19.926Z,87.86
2019-04-30T03:11:09.728Z,88.71
2019-04-30T03:13:52.157Z,89.06
2019-04-30T03:19:29.523Z,89.98
2019-04-30T03:22:10.342Z,89.64
2019-04-30T03:24:52.836Z,89.33
2019-04-30T03:27:24.778Z,88.86
2019-04-30T03:30:14.747Z,88.77
2019-04-30T03:32:50.781Z,88.13
2019-04-30T03:35:36.512Z,88.10
2019-04-30T03:38:26.274Z,88.44
2019-04-30T03:41:16.065Z,88.96
2019-04-30T03:43:46.410Z,88.54
2019-04-30T03:46:19.267Z,88.00
2019-04-30T03:48:54.346Z,88.09
2019-04-30T03:51:24.726Z,88.24
2019-04-30T03:54:14.470Z,87.80
2019-04-30T03:56:45.109Z,87.88
2019-04-30T03:59:15.495Z,88.11
2019-04-30T04:02:04.751Z,88.37
2019-04-30T04:05:13.515Z,88.63
2019-04-30T04:08:02.754Z,88.82
2019-04-30T04:11:11.439Z,89.12
2019-04-30T04:13:41.802Z,88.80
2019-04-30T04:16:12.126Z,89.42
2019-04-30T04:18:42.496Z,89.77
2019-04-30T04:21:16.765Z,89.61
2019-04-30T04:23:56.228Z,89.94
2019-04-30T04:26:26.567Z,90.20
2019-04-30T04:28:59.193Z,90.01
2019-04-30T04:31:39.896Z,90.40
2019-04-30T04:34:10.264Z,89.73
2019-04-30T04:36:43.346Z,90.15
2019-04-30T04:39:25.158Z,90.71
2019-04-30T04:42:14.893Z,91.13
2019-04-30T04:45:05.196Z,91.04
2019-04-30T04:47:35.587Z,91.26
2019-04-30T04:50:25.385Z,91.27
2019-04-30T04:53:15.146Z,91.23
2019-04-30T04:56:04.915Z,91.74
2019-04-30T04:58:54.689Z,91.97
2019-04-30T05:01:31.897Z,91.50
2019-04-30T05:04:21.671Z,91.76
2019-04-30T05:07:11.456Z,92.08
2019-04-30T05:10:01.398Z,91.92
2019-04-30T05:12:33.445Z,91.95
2019-04-30T05:15:03.867Z,91.71
2019-04-30T05:17:34.238Z,91.06
2019-04-30T05:20:05.377Z,91.21
2019-04-30T05:22:35.815Z,91.35
2019-04-30T05:25:25.646Z,91.58
2019-04-30T05:27:56.028Z,91.06
2019-04-30T05:30:26.550Z,90.46
2019-04-30T05:32:58.500Z,91.16
2019-04-30T05:35:49.581Z,91.63
2019-04-30T05:38:26.020Z,91.43
2019-04-30T05:40:56.473Z,90.90
2019-04-30T05:43:28.835Z,91.74
2019-04-30T05:46:11.050Z,90.79
2019-04-30T05:48:53.329Z,90.81
2019-04-30T05:51:52.883Z,90.81
2019-04-30T05:54:26.026Z,90.53
2019-04-30T05:56:56.366Z,90.98
2019-04-30T05:59:29.002Z,90.82
2019-04-30T06:02:11.738Z,90.79
2019-04-30T06:05:01.524Z,91.29
2019-04-30T06:07:51.966Z,90.62
2019-04-30T06:16:29.830Z,89.12
2019-04-30T06:19:12.650Z,88.02
2019-04-30T06:21:43.032Z,88.16
2019-04-30T06:24:13.373Z,88.52
2019-04-30T06:26:43.742Z,88.58
2019-04-30T06:32:59.309Z,89.78
2019-04-30T06:35:40.617Z,90.35
2019-04-30T06:38:11.039Z,90.61
2019-04-30T06:40:41.553Z,89.92
2019-04-30T06:43:12.186Z,89.89
2019-04-30T06:45:42.605Z,89.43
2019-04-30T06:51:16.259Z,89.35
2019-04-30T06:53:48.934Z,89.49
2019-04-30T06:56:33.192Z,89.43
2019-04-30T06:59:03.861Z,89.68
2019-04-30T07:01:34.298Z,89.67
2019-04-30T07:04:04.705Z,88.50
2019-04-30T07:06:37.110Z,88.89
2019-04-30T07:09:51.272Z,88.98
2019-04-30T07:12:34.391Z,89.34
2019-04-30T07:15:05.266Z,89.67
2019-04-30T07:17:35.661Z,90.34
2019-04-30T07:20:06.493Z,89.82
2019-04-30T07:22:41.033Z,90.59
2019-04-30T07:25:19.907Z,90.80
2019-04-30T07:27:50.737Z,90.97
2019-04-30T07:30:41.908Z,91.64
2019-04-30T07:33:12.396Z,91.81
2019-04-30T07:35:42.832Z,91.50
2019-04-30T07:38:13.315Z,91.06
2019-04-30T07:40:43.819Z,91.24
2019-04-30T07:43:14.235Z,90.92
2019-04-30T07:45:44.643Z,90.96
2019-04-30T07:48:15.148Z,90.92
2019-04-30T07:50:46.018Z,91.08
2019-04-30T07:53:31.017Z,91.47
2019-04-30T07:56:25.789Z,91.16
2019-04-30T07:58:56.759Z,91.66
2019-04-30T08:01:29.026Z,91.37
2019-04-30T08:04:29.442Z,91.74
2019-04-30T08:07:01.930Z,91.65
2019-04-30T08:09:39.252Z,91.63
2019-04-30T08:12:22.255Z,91.68
2019-04-30T08:14:59.557Z,91.85
2019-04-30T08:17:36.560Z,91.58
2019-04-30T08:20:08.721Z,92.51
2019-04-30T08:23:03.102Z,92.90
2019-04-30T08:25:41.587Z,91.67
2019-04-30T08:28:12.011Z,91.99
2019-04-30T08:30:42.378Z,92.30
2019-04-30T08:33:12.836Z,92.29
2019-04-30T08:35:43.207Z,92.13
2019-04-30T08:38:13.573Z,91.93
2019-04-30T08:40:55.544Z,91.74
2019-04-30T08:43:29.316Z,91.68
2019-04-30T08:46:15.827Z,91.61
2019-04-30T08:48:51.595Z,91.59
2019-04-30T08:51:38.880Z,91.29
2019-04-30T08:54:15.254Z,90.92
2019-04-30T08:56:45.567Z,91.12
2019-04-30T08:59:15.993Z,91.52
2019-04-30T09:01:46.376Z,91.65
2019-04-30T09:04:16.746Z,91.70
2019-04-30T09:06:49.021Z,91.22
2019-04-30T09:12:21.728Z,91.95
2019-04-30T09:14:52.294Z,92.14
2019-04-30T09:17:22.718Z,92.02
2019-04-30T09:19:53.204Z,92.15
2019-04-30T09:22:23.592Z,91.66
2019-04-30T09:24:53.944Z,92.21
2019-04-30T09:33:11.227Z,94.05
2019-04-30T09:35:53.315Z,94.76
2019-04-30T09:38:23.676Z,94.54
2019-04-30T09:40:54.025Z,94.18
2019-04-30T09:43:24.388Z,93.50
2019-04-30T09:46:22.016Z,93.51
2019-04-30T09:48:59.737Z,92.21
2019-04-30T09:51:42.117Z,92.67
2019-04-30T09:54:25.716Z,93.09
2019-04-30T09:56:56.050Z,93.18
2019-04-30T09:59:28.959Z,93.71
2019-04-30T10:02:09.699Z,93.61
2019-04-30T10:04:40.830Z,92.77
2019-04-30T10:07:31.602Z,92.54
2019-04-30T10:10:01.968Z,93.67
2019-04-30T10:12:32.336Z,93.70
2019-04-30T10:15:02.831Z,94.23
2019-04-30T10:17:52.143Z,94.55
2019-04-30T10:23:24.739Z,96.03
2019-04-30T10:25:55.096Z,96.79
2019-04-30T10:28:25.624Z,97.42
2019-04-30T10:31:15.418Z,97.40
2019-04-30T10:33:45.757Z,97.44
2019-04-30T10:36:16.316Z,97.41
2019-04-30T10:38:46.765Z,96.76
2019-04-30T10:41:18.804Z,96.44
2019-04-30T10:44:00.520Z,94.90
2019-04-30T10:46:31.059Z,95.04
2019-04-30T10:49:01.540Z,95.62
2019-04-30T10:51:31.970Z,96.11
2019-04-30T10:54:02.438Z,96.12
2019-04-30T10:56:32.890Z,96.25
2019-04-30T10:59:03.304Z,96.75
2019-04-30T11:01:33.657Z,97.09
2019-04-30T11:04:04.223Z,97.39
2019-04-30T11:06:34.695Z,97.42
2019-04-30T11:12:09.361Z,97.28
2019-04-30T11:14:58.923Z,97.47
2019-04-30T11:17:30.207Z,97.24
2019-04-30T11:20:22.262Z,97.47
2019-04-30T11:23:13.718Z,98.21
2019-04-30T11:25:49.895Z,98.23
2019-04-30T11:28:30.731Z,98.68
2019-04-30T11:31:32.990Z,98.73
2019-04-30T11:36:47.309Z,98.99
2019-04-30T11:42:29.173Z,99.15
2019-04-30T11:44:59.540Z,98.90
2019-04-30T11:53:25.251Z,98.38
2019-04-30T11:56:08.792Z,97.79
2019-04-30T11:58:44.806Z,98.04
2019-04-30T12:04:19.443Z,97.38
2019-04-30T12:07:28.095Z,98.26
2019-04-30T12:10:19.364Z,98.77
2019-04-30T12:12:55.888Z,99.21
2019-04-30T12:15:45.704Z,98.65
2019-04-30T12:18:16.198Z,98.87
2019-04-30T12:20:46.717Z,98.79
2019-04-30T12:23:18.927Z,98.99
2019-04-30T12:26:02.702Z,99.58
2019-04-30T12:28:37.767Z,99.73
2019-04-30T12:31:09.870Z,99.37
2019-04-30T12:33:59.712Z,99.12
2019-04-30T12:36:30.223Z,99.08
2019-04-30T12:39:00.617Z,99.36
2019-04-30T12:41:31.131Z,98.84
2019-04-30T12:44:01.545Z,97.95
2019-04-30T12:46:32.009Z,98.60
2019-04-30T12:49:21.370Z,98.48
2019-04-30T12:52:10.718Z,98.00
2019-04-30T12:55:00.088Z,96.67
2019-04-30T13:03:17.269Z,94.26
2019-04-30T13:05:50.060Z,92.63
2019-04-30T13:08:40.030Z,92.63
2019-04-30T13:11:23.029Z,91.90
2019-04-30T13:14:06.659Z,91.68
2019-04-30T13:16:49.670Z,92.39
2019-04-30T13:19:20.225Z,90.88
2019-04-30T13:21:50.790Z,90.95
2019-04-30T13:24:21.401Z,91.48
2019-04-30T13:26:51.956Z,92.40
2019-04-30T13:29:41.311Z,93.67
2019-04-30T13:32:11.863Z,94.90
2019-04-30T13:40:45.280Z,96.43
2019-04-30T13:46:00.051Z,95.94
2019-04-30T13:48:30.651Z,96.29
2019-04-30T13:51:01.116Z,95.17
2019-04-30T13:53:31.640Z,93.99
2019-04-30T13:56:02.069Z,94.70
2019-04-30T13:58:32.586Z,95.04
2019-04-30T14:04:12.995Z,95.33
2019-04-30T14:09:36.331Z,95.61
2019-04-30T14:12:06.806Z,94.90
2019-04-30T14:14:39.429Z,94.89
2019-04-30T14:17:15.233Z,95.77
2019-04-30T14:19:45.645Z,95.64
2019-04-30T14:22:16.251Z,95.35
2019-04-30T14:24:46.730Z,95.37
2019-04-30T14:27:17.235Z,95.73
2019-04-30T14:29:49.442Z,96.32
2019-04-30T14:32:32.729Z,96.53
2019-04-30T14:35:03.151Z,96.69
2019-04-30T14:37:33.615Z,97.15
2019-04-30T14:40:04.960Z,97.70
2019-04-30T14:51:28.719Z,97.75
2019-04-30T14:54:19.914Z,97.76
2019-04-30T14:57:14.904Z,98.08
2019-04-30T15:00:04.182Z,99.23
2019-04-30T15:02:38.253Z,99.79
2019-04-30T15:05:11.579Z,100.00
2019-04-30T15:07:42.153Z,100.00
2019-04-30T15:10:12.542Z,100.00
2019-04-30T15:12:43.095Z,100.00
2019-04-30T15:18:16.679Z,100.00
2019-04-30T15:20:47.083Z,100.00
2019-04-30T15:26:24.489Z,100.00
2019-04-30T15:29:00.022Z,100.00
2019-04-30T15:31:43.097Z,99.62
2019-04-30T15:34:14.459Z,98.89
2019-04-30T15:36:44.871Z,98.15
2019-04-30T15:39:34.397Z,98.00
2019-04-30T15:42:04.928Z,97.74
2019-04-30T15:44:54.707Z,96.95
2019-04-30T15:47:44.538Z,95.99
2019-04-30T15:53:19.242Z,94.28
2019-04-30T15:56:08.962Z,91.97
2019-04-30T16:01:36.880Z,92.08
2019-04-30T16:07:19.532Z,92.38
2019-04-30T16:10:20.614Z,92.47
2019-04-30T16:13:09.934Z,92.85
2019-04-30T16:15:59.722Z,92.62
2019-04-30T16:21:33.209Z,91.12
2019-04-30T16:24:23.012Z,91.10
2019-04-30T16:26:53.511Z,90.90
2019-04-30T16:29:23.904Z,90.54
2019-04-30T16:31:54.370Z,90.28
2019-04-30T16:34:24.772Z,89.67
2019-04-30T16:36:55.215Z,89.95
2019-04-30T16:39:25.673Z,89.96
2019-04-30T16:41:56.117Z,89.63
2019-04-30T16:44:26.578Z,89.41
2019-04-30T16:46:57.046Z,89.09
2019-04-30T16:49:48.848Z,88.31
2019-04-30T16:52:24.450Z,88.08
2019-04-30T16:54:54.951Z,87.37
2019-04-30T16:57:25.488Z,87.64
2019-04-30T17:08:51.120Z,87.41
2019-04-30T17:11:40.403Z,86.85
2019-04-30T17:14:13.684Z,86.22
2019-04-30T17:16:44.664Z,86.37
2019-04-30T17:19:15.033Z,87.05
2019-04-30T17:24:30.248Z,88.11
2019-04-30T17:27:22.247Z,88.79
2019-04-30T17:30:06.711Z,89.33
2019-04-30T17:32:37.191Z,89.28
2019-04-30T17:35:09.067Z,89.07
2019-04-30T17:37:45.313Z,89.03
2019-04-30T17:40:16.069Z,89.47
2019-04-30T17:42:46.490Z,89.08
2019-04-30T17:45:19.369Z,89.70
2019-04-30T17:48:08.925Z,89.59
2019-04-30T17:50:39.754Z,89.88
2019-04-30T17:53:18.962Z,90.26
2019-04-30T17:55:59.614Z,90.72
2019-04-30T17:58:49.415Z,90.62
2019-04-30T18:04:23.902Z,91.27
2019-04-30T18:07:13.730Z,91.32
2019-04-30T18:09:44.240Z,91.05
2019-04-30T18:12:14.623Z,91.09
2019-04-30T18:14:45.135Z,91.28
2019-04-30T18:17:34.907Z,91.05
2019-04-30T18:20:24.917Z,91.20
2019-04-30T18:28:31.368Z,89.07
2019-04-30T18:31:01.814Z,89.48
2019-04-30T18:33:32.220Z,88.66
2019-04-30T18:36:02.721Z,87.96
2019-04-30T18:38:33.153Z,86.95
2019-04-30T18:41:03.586Z,86.18
2019-04-30T18:43:34.000Z,86.09
2019-04-30T18:46:04.589Z,85.42
2019-04-30T18:48:35.047Z,85.68
2019-04-30T18:51:19.199Z,85.21
2019-04-30T18:53:43.223Z,84.83
2019-04-30T18:56:14.859Z,85.06
2019-04-30T18:59:05.364Z,85.15
2019-04-30T19:01:35.759Z,85.36
2019-04-30T19:04:06.249Z,85.54
2019-04-30T19:06:36.635Z,86.03
2019-04-30T19:09:29.803Z,86.88
2019-04-30T19:12:33.490Z,86.01
2019-04-30T19:15:35.669Z,85.56
2019-04-30T19:18:19.937Z,84.27
2019-04-30T19:20:53.034Z,84.70
2019-04-30T19:23:23.542Z,84.60
2019-04-30T19:25:54.109Z,84.59
2019-04-30T19:28:24.504Z,83.83
2019-04-30T19:30:58.385Z,83.69
2019-04-30T19:33:32.636Z,83.49
2019-04-30T19:36:03.069Z,83.59
2019-04-30T19:38:33.469Z,83.04
2019-04-30T19:41:04.104Z,82.68
2019-04-30T19:43:34.832Z,82.71
2019-04-30T19:46:05.328Z,83.58
2019-04-30T19:48:35.762Z,83.02
2019-04-30T19:51:06.272Z,82.67
2019-04-30T19:53:36.701Z,82.86
2019-04-30T19:56:07.238Z,81.84
2019-04-30T19:58:50.066Z,81.31
2019-04-30T20:01:21.274Z,80.99
2019-04-30T20:03:51.897Z,81.21
2019-04-30T20:06:22.465Z,80.82
2019-04-30T20:08:52.920Z,79.91
2019-04-30T20:11:23.379Z,79.78
2019-04-30T20:13:53.950Z,79.89
2019-04-30T20:16:24.620Z,80.61
2019-04-30T20:19:14.397Z,81.31
2019-04-30T20:21:48.736Z,81.16
2019-04-30T20:24:36.427Z,80.89
2019-04-30T20:27:09.538Z,80.48
2019-04-30T20:29:59.265Z,80.70
2019-04-30T20:32:42.006Z,81.26
2019-04-30T20:35:12.444Z,81.68
2019-04-30T20:38:01.772Z,82.68
2019-04-30T20:43:16.085Z,83.15
2019-04-30T20:45:46.562Z,83.25
2019-04-30T20:48:18.835Z,83.50
2019-04-30T20:51:01.388Z,82.85
2019-04-30T20:53:43.251Z,83.41
2019-04-30T20:56:13.726Z,83.65
2019-04-30T20:58:54.946Z,84.19
2019-04-30T21:01:29.245Z,83.56
2019-04-30T21:04:10.305Z,83.11
2019-04-30T21:06:40.722Z,82.67
2019-04-30T21:09:11.182Z,82.05
2019-04-30T21:11:41.585Z,81.96
2019-04-30T21:14:12.058Z,82.01
2019-04-30T21:16:42.516Z,82.29
2019-04-30T21:19:12.948Z,82.43
2019-04-30T21:22:02.442Z,81.54
2019-04-30T21:24:32.876Z,81.74
2019-04-30T21:27:03.307Z,80.82
2019-04-30T21:29:33.893Z,80.65
2019-04-30T21:32:23.195Z,80.70
2019-04-30T21:35:12.630Z,80.11
2019-04-30T21:37:43.093Z,79.16
2019-04-30T21:40:13.594Z,79.69
2019-04-30T21:42:44.121Z,78.90
2019-04-30T21:45:14.497Z,78.60
2019-04-30T21:47:55.763Z,78.61
2019-04-30T21:50:36.510Z,78.07
2019-04-30T21:53:06.950Z,78.08
2019-04-30T21:55:39.606Z,78.68
2019-04-30T21:58:20.612Z,78.14
2019-04-30T22:04:28.827Z,77.55
2019-04-30T22:06:59.563Z,77.77
2019-04-30T22:09:42.320Z,77.84
2019-04-30T22:12:12.730Z,78.36
2019-04-30T22:14:43.203Z,78.20
2019-04-30T22:17:13.651Z,78.61
2019-04-30T22:19:44.048Z,78.63
2019-04-30T22:22:14.537Z,79.35
2019-04-30T22:24:44.913Z,79.74
2019-04-30T22:27:17.482Z,79.63
2019-04-30T22:30:46.225Z,79.62
2019-04-30T22:33:16.618Z,79.18
2019-04-30T22:36:05.908Z,79.14
2019-04-30T22:44:08.060Z,77.84
2019-04-30T22:49:27.287Z,77.94
2019-04-30T22:51:57.658Z,77.25
2019-04-30T22:54:28.131Z,76.16
2019-04-30T22:56:58.621Z,76.15
2019-04-30T22:59:29.060Z,76.89
2019-04-30T23:02:18.387Z,76.83
2019-04-30T23:04:49.009Z,76.83
2019-04-30T23:07:19.404Z,77.81
2019-04-30T23:10:09.297Z,78.31
2019-04-30T23:12:39.685Z,78.55
2019-04-30T23:15:10.271Z,78.95
2019-04-30T23:17:40.781Z,79.03
2019-04-30T23:23:08.038Z,79.69
2019-04-30T23:25:38.455Z,79.33
2019-04-30T23:28:08.871Z,79.06
2019-04-30T23:30:39.245Z,79.35
2019-04-30T23:33:09.764Z,77.75
2019-04-30T23:35:40.282Z,77.83
2019-04-30T23:38:10.693Z,77.89
2019-04-30T23:43:49.432Z,77.85
2019-04-30T23:46:19.838Z,79.02
2019-04-30T23:48:50.225Z,79.19
2019-04-30T23:51:20.617Z,79.33
2019-04-30T23:53:51.065Z,79.90
2019-04-30T23:56:21.539Z,79.29
2019-04-30T23:58:51.944Z,78.92
